Time;durP1;ratioP1;P1;durP2;ratioP2;P2;SDS_P1;SDS_P2;PMS_P1;PMS_P2;Temp;Humidity;BMP_temperature;BMP_pressure;BME280_temperature;BME280_humidity;BME280_pressure;Samples;Min_cycle;Max_cycle;Signal;HPM_P1;HPM_P2
2023/06/22 00:00:04;;;;;;;12.50;8.80;;;;;;;26.52;60.25;99693.88;5095799;28;20191;-71
2023/06/22 00:02:34;;;;;;;8.73;7.93;;;;;;;26.46;60.96;99689.63;5095445;28;20281;-71
2023/06/22 00:05:01;;;;;;;8.60;7.80;;;;;;;26.37;61.85;99694.91;5090462;28;20545;-71
2023/06/22 00:07:27;;;;;;;8.87;8.00;;;;;;;26.31;61.92;99689.81;5076317;28;20273;-70
2023/06/22 00:09:54;;;;;;;12.67;8.20;;;;;;;26.20;62.72;99694.59;5075061;28;20664;-70
2023/06/22 00:12:21;;;;;;;8.60;7.90;;;;;;;26.12;63.07;99699.88;5075250;28;20192;-70
2023/06/22 00:14:47;;;;;;;9.20;8.37;;;;;;;26.14;63.12;99697.69;5075468;28;20215;-70
2023/06/22 00:17:16;;;;;;;9.53;8.83;;;;;;;26.19;63.00;99692.16;5075140;28;20192;-70
2023/06/22 00:19:42;;;;;;;8.87;8.37;;;;;;;26.17;63.85;99692.47;5075131;28;20192;-70
2023/06/22 00:22:09;;;;;;;8.87;8.17;;;;;;;26.18;63.69;99701.44;5075074;28;20234;-70
2023/06/22 00:24:36;;;;;;;12.17;9.87;;;;;;;26.19;63.36;99708.50;5076561;28;20195;-70
2023/06/22 00:27:02;;;;;;;10.33;9.23;;;;;;;26.14;63.74;99711.31;5094907;28;20191;-71
2023/06/22 00:29:29;;;;;;;10.47;9.50;;;;;;;26.10;63.81;99718.44;5095237;28;20248;-70
2023/06/22 00:31:56;;;;;;;10.63;9.73;;;;;;;26.02;64.33;99716.34;5095536;28;20231;-70
2023/06/22 00:34:24;;;;;;;10.77;9.80;;;;;;;25.93;64.43;99709.91;5095090;28;20195;-70
2023/06/22 00:36:51;;;;;;;10.63;9.97;;;;;;;25.76;65.00;99715.81;5094110;28;20195;-71
2023/06/22 00:39:18;;;;;;;9.67;8.77;;;;;;;25.67;66.02;99714.00;5094712;28;20238;-71
2023/06/22 00:41:45;;;;;;;10.37;9.47;;;;;;;25.66;66.52;99715.09;5094759;28;20244;-71
2023/06/22 00:44:12;;;;;;;9.90;9.07;;;;;;;25.68;66.39;99719.16;5093696;28;20733;-71
2023/06/22 00:46:38;;;;;;;11.40;10.50;;;;;;;25.72;66.08;99722.13;5094490;28;20635;-71
2023/06/22 00:49:05;;;;;;;11.33;10.33;;;;;;;25.68;66.39;99726.53;5094754;28;20223;-71
2023/06/22 00:51:37;;;;;;;10.63;9.70;;;;;;;25.72;66.13;99722.94;5095185;28;20187;-72
2023/06/22 00:54:05;;;;;;;11.17;10.27;;;;;;;25.73;66.26;99719.13;5094473;28;20283;-72
2023/06/22 00:56:33;;;;;;;11.73;10.70;;;;;;;25.53;66.24;99702.19;5094991;28;20191;-72
2023/06/22 00:59:03;;;;;;;11.63;10.63;;;;;;;25.51;66.22;99712.56;5094339;28;20674;-72
2023/06/22 01:01:30;;;;;;;11.43;10.40;;;;;;;25.41;66.76;99716.19;5093862;28;20187;-72
2023/06/22 01:03:57;;;;;;;11.07;10.07;;;;;;;25.40;67.39;99713.75;5094576;28;20221;-72
2023/06/22 01:06:31;;;;;;;11.13;10.13;;;;;;;25.44;67.25;99712.09;5077460;28;20627;-71
2023/06/22 01:09:07;;;;;;;11.10;10.03;;;;;;;25.48;67.04;99722.09;5076005;28;20214;-71
2023/06/22 01:11:39;;;;;;;11.40;10.50;;;;;;;25.53;67.10;99715.78;5094217;28;20183;-71
2023/06/22 01:14:11;;;;;;;11.00;10.30;;;;;;;25.52;67.31;99712.25;5094409;28;20198;-71
2023/06/22 01:16:42;;;;;;;10.57;9.63;;;;;;;25.53;67.65;99718.50;5094412;28;20190;-70
2023/06/22 01:19:27;;;;;;;12.50;11.47;;;;;;;25.55;66.14;99721.78;5094327;28;20273;-72
2023/06/22 01:21:57;;;;;;;11.37;10.30;;;;;;;25.45;67.83;99716.41;5093985;28;20233;-70
2023/06/22 01:24:31;;;;;;;12.80;11.83;;;;;;;25.41;67.02;99715.38;5094065;28;20199;-73
2023/06/22 01:27:09;;;;;;;12.70;11.33;;;;;;;25.34;66.80;99720.31;5093137;28;20660;-73
2023/06/22 01:29:38;;;;;;;11.97;11.27;;;;;;;25.19;67.73;99693.25;5093668;28;20565;-73
2023/06/22 01:32:07;;;;;;;11.10;10.27;;;;;;;25.24;68.23;99694.03;5093952;28;20315;-73
2023/06/22 01:34:35;;;;;;;11.37;10.37;;;;;;;25.31;67.90;99710.03;5094243;28;20195;-71
2023/06/22 01:37:02;;;;;;;12.17;10.53;;;;;;;25.32;67.86;99712.47;5093632;28;20731;-71
2023/06/22 01:39:31;;;;;;;11.33;10.40;;;;;;;25.39;67.70;99710.22;5093809;28;20199;-71
2023/06/22 01:41:58;;;;;;;9.93;9.33;;;;;;;25.45;67.56;99695.47;5093876;28;20187;-71
2023/06/22 01:44:26;;;;;;;11.50;9.80;;;;;;;25.52;67.35;99700.59;5092385;28;20196;-71
2023/06/22 01:46:54;;;;;;;12.03;10.57;;;;;;;25.54;67.39;99704.63;5093734;28;20244;-72
2023/06/22 01:49:21;;;;;;;11.47;9.73;;;;;;;25.57;67.21;99709.50;5092638;28;20227;-71
2023/06/22 01:51:48;;;;;;;12.80;10.90;;;;;;;25.57;67.27;99706.78;5093406;28;20248;-71
2023/06/22 01:54:15;;;;;;;12.43;11.43;;;;;;;25.56;66.31;99707.06;5093524;28;20191;-71
2023/06/22 01:56:41;;;;;;;12.07;11.27;;;;;;;25.48;66.43;99710.41;5093250;28;20732;-72
2023/06/22 01:59:12;;;;;;;11.03;10.23;;;;;;;25.42;68.03;99717.81;5093454;28;20199;-73
2023/06/22 02:01:44;;;;;;;12.60;10.73;;;;;;;25.41;67.45;99712.66;5092796;28;20229;-73
2023/06/22 02:04:20;;;;;;;13.43;11.90;;;;;;;25.39;66.89;99714.88;5093065;28;20256;-73
2023/06/22 02:06:49;;;;;;;12.43;11.53;;;;;;;25.41;66.62;99723.53;5093404;28;20187;-73
2023/06/22 02:09:18;;;;;;;11.50;10.50;;;;;;;25.36;67.96;99707.28;5092450;28;20219;-72
2023/06/22 02:11:47;;;;;;;10.47;9.77;;;;;;;25.41;67.59;99709.94;5093550;28;20281;-72
2023/06/22 02:14:14;;;;;;;10.13;9.43;;;;;;;25.42;67.94;99714.28;5093144;28;20193;-73
2023/06/22 02:16:43;;;;;;;11.27;10.27;;;;;;;25.41;67.91;99710.75;5093219;28;20191;-72
2023/06/22 02:19:09;;;;;;;10.57;9.83;;;;;;;25.46;67.51;99707.97;5092834;28;20191;-72
2023/06/22 02:21:38;;;;;;;10.60;9.90;;;;;;;25.41;67.70;99712.66;5093359;28;20196;-72
2023/06/22 02:24:05;;;;;;;11.00;9.93;;;;;;;25.40;66.96;99697.44;5092667;28;20607;-72
2023/06/22 02:26:34;;;;;;;10.53;9.63;;;;;;;25.50;66.87;99708.19;5092713;28;20637;-72
2023/06/22 02:29:00;;;;;;;10.13;9.27;;;;;;;25.53;66.58;99713.06;5092843;28;20253;-72
2023/06/22 02:31:30;;;;;;;10.17;9.47;;;;;;;25.53;66.35;99722.06;5092804;28;20288;-72
2023/06/22 02:33:57;;;;;;;10.73;9.73;;;;;;;25.49;67.22;99718.28;5093218;28;20191;-72
2023/06/22 02:36:26;;;;;;;10.07;9.37;;;;;;;25.38;67.14;99715.94;5091550;28;20618;-72
2023/06/22 02:39:00;;;;;;;11.13;10.37;;;;;;;25.25;67.27;99724.75;5092757;28;20194;-72
2023/06/22 02:41:27;;;;;;;10.63;10.03;;;;;;;25.04;67.56;99715.97;5092816;28;20187;-72
2023/06/22 02:43:54;;;;;;;10.63;9.93;;;;;;;25.01;68.25;99721.97;5092707;28;20202;-71
2023/06/22 02:46:21;;;;;;;11.83;10.87;;;;;;;24.93;68.76;99728.00;5092225;28;20202;-69
2023/06/22 02:48:47;;;;;;;10.03;9.33;;;;;;;24.88;69.20;99728.03;5092601;28;20309;-70
2023/06/22 02:51:14;;;;;;;11.37;10.30;;;;;;;24.78;69.27;99726.22;5090757;28;20244;-71
2023/06/22 02:53:44;;;;;;;11.60;10.60;;;;;;;24.74;69.34;99732.47;5092239;28;20199;-70
2023/06/22 02:56:12;;;;;;;14.33;10.90;;;;;;;24.66;70.15;99736.63;5092446;28;20206;-71
2023/06/22 02:58:39;;;;;;;11.00;9.87;;;;;;;24.57;71.20;99735.56;5092509;28;20198;-70
2023/06/22 03:01:06;;;;;;;12.80;10.97;;;;;;;24.58;70.28;99739.88;5091816;28;20252;-71
2023/06/22 03:03:33;;;;;;;12.40;10.93;;;;;;;24.57;69.92;99742.88;5092126;28;20198;-71
2023/06/22 03:06:00;;;;;;;12.23;10.90;;;;;;;24.40;70.16;99742.44;5091993;28;20203;-71
2023/06/22 03:08:28;;;;;;;11.70;10.80;;;;;;;24.27;71.90;99749.31;5091499;28;20218;-71
2023/06/22 03:10:54;;;;;;;10.97;10.17;;;;;;;24.25;70.67;99751.47;5091910;28;20285;-71
2023/06/22 03:13:23;;;;;;;13.10;9.83;;;;;;;24.27;68.97;99743.88;5091456;28;20689;-69
2023/06/22 03:15:49;;;;;;;10.03;9.33;;;;;;;24.44;69.10;99748.94;5091533;28;20198;-69
2023/06/22 03:18:16;;;;;;;9.63;9.03;;;;;;;24.45;67.20;99751.38;5092054;28;20204;-70
2023/06/22 03:20:43;;;;;;;9.30;8.40;;;;;;;24.40;68.89;99747.88;5091682;28;20285;-69
2023/06/22 03:23:10;;;;;;;8.97;8.20;;;;;;;24.42;69.38;99749.22;5091468;28;20198;-72
2023/06/22 03:25:36;;;;;;;10.00;9.30;;;;;;;24.58;68.23;99764.34;5091569;28;20628;-72
2023/06/22 03:28:03;;;;;;;8.40;7.50;;;;;;;24.80;67.54;99758.53;5092074;28;20194;-72
2023/06/22 03:30:31;;;;;;;8.80;8.07;;;;;;;24.90;65.47;99764.72;5091851;28;20223;-72
2023/06/22 03:32:58;;;;;;;9.80;8.73;;;;;;;24.93;64.41;99766.06;5091697;28;20717;-70
2023/06/22 03:35:24;;;;;;;8.83;8.07;;;;;;;24.90;64.60;99772.88;5091940;28;20256;-72
2023/06/22 03:37:51;;;;;;;8.87;8.17;;;;;;;24.83;63.94;99769.66;5091723;28;20248;-72
2023/06/22 03:40:18;;;;;;;10.07;9.07;;;;;;;24.75;64.32;99767.53;5090369;28;20689;-70
2023/06/22 03:42:44;;;;;;;10.50;9.70;;;;;;;24.62;65.74;99768.16;5083521;28;20316;-70
2023/06/22 03:45:11;;;;;;;10.27;9.40;;;;;;;24.65;66.07;99770.31;5091236;28;20199;-71
2023/06/22 03:47:40;;;;;;;10.80;10.03;;;;;;;24.46;66.95;99769.28;5091368;28;20191;-70
2023/06/22 03:50:07;;;;;;;15.83;11.40;;;;;;;23.99;68.50;99768.97;5091181;28;20241;-70
2023/06/22 03:52:34;;;;;;;11.47;10.63;;;;;;;23.68;70.08;99767.38;5091709;28;20197;-71
2023/06/22 03:55:01;;;;;;;11.53;10.77;;;;;;;23.64;70.49;99766.28;5091266;28;20194;-70
2023/06/22 03:57:27;;;;;;;11.80;10.90;;;;;;;23.62;70.81;99760.34;5090488;28;20194;-71
2023/06/22 03:59:57;;;;;;;16.57;11.20;;;;;;;23.76;71.57;99764.09;5091313;28;20198;-72
2023/06/22 04:02:24;;;;;;;11.53;10.57;;;;;;;23.70;71.42;99762.50;5088820;28;20190;-73
2023/06/22 04:04:52;;;;;;;11.63;10.50;;;;;;;24.21;70.13;99760.44;5091043;28;20200;-73
2023/06/22 04:07:18;;;;;;;13.33;10.33;;;;;;;25.16;67.22;99759.91;5090556;28;20190;-72
2023/06/22 04:09:45;;;;;;;11.77;10.53;;;;;;;26.21;63.77;99763.53;5091116;28;20214;-73
2023/06/22 04:12:12;;;;;;;11.93;10.43;;;;;;;27.11;59.87;99778.63;5091700;28;20198;-73
2023/06/22 04:14:38;;;;;;;12.00;9.77;;;;;;;27.73;57.34;99778.13;5094667;28;20662;-73
2023/06/22 04:17:05;;;;;;;16.93;9.40;;;;;;;28.06;57.08;99779.69;5094954;28;20195;-73
2023/06/22 04:19:32;;;;;;;17.57;9.97;;;;;;;28.65;54.20;99782.28;5084348;28;20218;-72
2023/06/22 04:22:00;;;;;;;13.23;9.50;;;;;;;29.03;52.40;99780.91;5090005;28;20191;-73
2023/06/22 04:24:27;;;;;;;10.67;9.50;;;;;;;29.27;51.96;99784.97;5094783;28;20191;-72
2023/06/22 04:26:54;;;;;;;10.10;9.20;;;;;;;29.45;50.92;99796.84;5083651;28;20188;-70
2023/06/22 04:29:28;;;;;;;10.23;8.67;;;;;;;29.80;50.61;99790.47;5083603;28;20216;-70
2023/06/22 04:31:57;;;;;;;9.23;8.17;;;;;;;30.41;48.14;99790.41;5083901;28;20219;-70
2023/06/22 04:34:26;;;;;;;10.40;9.23;;;;;;;30.96;46.54;99798.91;5091696;28;20621;-70
2023/06/22 04:36:53;;;;;;;10.90;8.53;;;;;;;31.55;44.50;99801.66;5088802;28;20198;-70
2023/06/22 04:39:21;;;;;;;12.07;9.17;;;;;;;31.78;44.13;99789.34;5084999;28;20191;-70
2023/06/22 04:41:48;;;;;;;9.57;8.80;;;;;;;32.21;42.62;99792.72;5083988;28;20242;-69
2023/06/22 04:44:23;;;;;;;10.43;9.17;;;;;;;32.34;42.04;99797.19;5094397;28;20192;-70
2023/06/22 04:46:53;;;;;;;11.23;9.63;;;;;;;32.47;41.92;99807.16;5092581;28;20191;-69
2023/06/22 04:49:21;;;;;;;10.53;8.70;;;;;;;32.50;42.40;99800.22;5093899;28;20269;-69
2023/06/22 04:51:48;;;;;;;12.90;9.27;;;;;;;32.65;41.22;99792.19;5093961;28;20615;-70
2023/06/22 04:54:15;;;;;;;15.13;9.50;;;;;;;32.84;40.82;99797.25;5087597;28;20192;-70
2023/06/22 04:56:46;;;;;;;11.33;9.23;;;;;;;32.71;41.73;99795.53;5094067;28;20199;-70
2023/06/22 04:59:13;;;;;;;20.43;9.70;;;;;;;32.86;41.42;99782.00;5083675;28;20198;-70
2023/06/22 05:01:39;;;;;;;9.27;8.57;;;;;;;33.07;40.77;99777.31;5086969;28;20187;-70
2023/06/22 05:04:07;;;;;;;9.93;8.90;;;;;;;33.42;40.13;99774.25;5084400;28;20248;-72
2023/06/22 05:06:34;;;;;;;23.13;9.30;;;;;;;33.92;39.24;99774.88;5082881;28;20242;-71
2023/06/22 05:09:00;;;;;;;12.13;8.97;;;;;;;34.10;38.42;99776.25;5089941;28;20268;-71
2023/06/22 05:11:28;;;;;;;12.73;7.77;;;;;;;34.44;37.97;99781.31;5093373;28;20655;-72
2023/06/22 05:13:56;;;;;;;17.25;7.15;;;;;;;34.70;37.09;99790.03;5091482;28;20240;-71
2023/06/22 05:16:24;;;;;;;8.63;7.32;;;;;;;35.05;36.62;99780.06;5093911;28;20667;-67
2023/06/22 05:18:54;;;;;;;7.63;6.82;;;;;;;35.30;36.15;99781.63;5094439;28;20213;-66
2023/06/22 05:21:23;;;;;;;9.25;8.45;;;;;;;35.80;34.68;99784.63;5094114;28;20257;-66
2023/06/22 05:23:50;;;;;;;12.40;8.88;;;;;;;35.71;35.66;99775.63;5092686;28;20196;-65
2023/06/22 05:26:17;;;;;;;15.05;9.15;;;;;;;36.03;34.90;99771.75;5093127;28;20196;-66
2023/06/22 05:28:45;;;;;;;15.68;8.15;;;;;;;35.98;34.54;99774.78;5093697;28;20191;-67
2023/06/22 05:31:14;;;;;;;8.02;7.43;;;;;;;35.65;35.34;99779.81;5093766;28;20292;-66
2023/06/22 05:33:41;;;;;;;7.82;7.22;;;;;;;35.82;34.43;99783.09;5093589;28;20684;-66
2023/06/22 05:36:08;;;;;;;17.23;8.00;;;;;;;35.89;34.53;99788.78;5093149;28;20213;-65
2023/06/22 05:38:35;;;;;;;12.55;7.20;;;;;;;35.95;34.89;99787.38;5092530;28;20201;-68
2023/06/22 05:41:02;;;;;;;7.45;6.75;;;;;;;35.66;35.40;99790.53;5092270;28;20195;-66
2023/06/22 05:43:29;;;;;;;10.75;7.35;;;;;;;35.54;35.46;99781.50;5092706;28;20272;-67
2023/06/22 05:45:55;;;;;;;10.50;7.00;;;;;;;35.65;35.20;99777.88;5092968;28;20248;-66
2023/06/22 05:48:23;;;;;;;7.75;7.25;;;;;;;35.78;35.45;99775.84;5092899;28;20648;-67
2023/06/22 05:50:50;;;;;;;7.95;7.28;;;;;;;35.80;34.62;99773.56;5092935;28;20230;-64
2023/06/22 05:53:17;;;;;;;7.97;7.20;;;;;;;35.83;34.53;99783.88;5092653;28;20577;-65
2023/06/22 05:55:44;;;;;;;7.22;6.72;;;;;;;36.07;34.64;99784.53;5092646;28;20264;-66
2023/06/22 05:58:11;;;;;;;8.40;7.10;;;;;;;36.13;33.57;99777.56;5092698;28;20628;-66
2023/06/22 06:00:38;;;;;;;7.10;6.30;;;;;;;35.87;34.26;99788.34;5091616;28;20191;-66
2023/06/22 06:03:04;;;;;;;8.25;7.13;;;;;;;35.72;34.51;99775.28;5092650;28;20256;-65
2023/06/22 06:05:33;;;;;;;7.82;7.25;;;;;;;35.89;34.69;99779.72;5083351;28;20333;-66
2023/06/22 06:08:00;;;;;;;11.32;6.90;;;;;;;35.92;34.13;99787.28;5072308;28;20191;-65
2023/06/22 06:10:27;;;;;;;8.15;7.03;;;;;;;36.20;33.46;99776.91;5072290;28;20223;-65
2023/06/22 06:12:54;;;;;;;7.45;6.72;;;;;;;36.19;33.76;99786.38;5072383;28;20250;-65
2023/06/22 06:15:20;;;;;;;11.15;6.78;;;;;;;36.23;34.02;99787.31;5078761;28;21370;-64
2023/06/22 06:17:48;;;;;;;8.15;6.70;;;;;;;36.11;33.82;99784.59;5092457;28;20233;-64
2023/06/22 06:20:15;;;;;;;7.70;7.10;;;;;;;35.89;34.13;99765.88;5092209;28;20624;-67
2023/06/22 06:22:43;;;;;;;9.18;7.22;;;;;;;35.95;34.27;99778.28;5089331;28;20192;-64
2023/06/22 06:25:15;;;;;;;8.02;7.18;;;;;;;35.97;33.31;99773.97;5089676;28;20193;-65
2023/06/22 06:27:42;;;;;;;7.47;6.90;;;;;;;36.00;33.51;99772.47;5092089;28;20183;-64
2023/06/22 06:30:10;;;;;;;8.15;7.30;;;;;;;36.16;32.80;99776.84;5091666;28;20215;-64
2023/06/22 06:32:36;;;;;;;10.95;7.15;;;;;;;35.87;34.11;99774.53;5092230;28;20184;-63
2023/06/22 06:35:03;;;;;;;7.40;6.95;;;;;;;35.51;33.11;99771.94;5088455;28;20204;-67
2023/06/22 06:37:30;;;;;;;7.88;6.88;;;;;;;35.47;33.99;99770.25;5090303;28;20191;-66
2023/06/22 06:39:58;;;;;;;7.45;6.85;;;;;;;35.59;32.84;99767.41;5091547;28;20252;-64
2023/06/22 06:42:25;;;;;;;7.15;6.53;;;;;;;35.50;34.34;99772.31;5091805;28;20187;-65
2023/06/22 06:44:51;;;;;;;6.63;6.32;;;;;;;35.46;34.21;99768.63;5091847;28;20188;-64
2023/06/22 06:47:18;;;;;;;8.45;6.53;;;;;;;35.37;34.32;99765.25;5091448;28;20195;-65
2023/06/22 06:49:45;;;;;;;7.68;7.00;;;;;;;35.37;33.17;99771.56;5086634;28;20268;-65
2023/06/22 06:52:12;;;;;;;8.25;7.45;;;;;;;35.34;33.20;99760.41;5091244;28;20190;-67
2023/06/22 06:54:38;;;;;;;8.00;7.50;;;;;;;35.26;34.41;99755.81;5091588;28;20195;-67
2023/06/22 06:57:07;;;;;;;13.85;7.20;;;;;;;35.45;33.19;99764.28;5090507;28;20232;-67
2023/06/22 06:59:33;;;;;;;8.75;7.57;;;;;;;35.58;33.20;99757.50;5090208;28;20252;-66
2023/06/22 07:02:00;;;;;;;7.95;6.93;;;;;;;35.80;32.86;99773.56;5090577;28;20195;-67
2023/06/22 07:04:27;;;;;;;7.50;6.75;;;;;;;35.95;33.79;99769.97;5088266;28;20731;-67
2023/06/22 07:06:53;;;;;;;7.32;6.93;;;;;;;35.95;34.31;99765.25;5096774;28;20634;-67
2023/06/22 07:09:20;;;;;;;7.43;6.85;;;;;;;36.03;34.23;99764.28;5089623;28;20195;-68
2023/06/22 07:11:47;;;;;;;7.80;6.90;;;;;;;36.01;33.31;99768.56;5082911;28;20187;-68
2023/06/22 07:14:15;;;;;;;7.93;6.95;;;;;;;36.00;33.10;99761.41;5084463;28;20199;-70
2023/06/22 07:16:41;;;;;;;7.05;6.50;;;;;;;36.12;32.38;99762.13;5089463;28;20260;-69
2023/06/22 07:19:08;;;;;;;12.45;7.22;;;;;;;36.06;32.10;99771.03;5084159;28;20187;-69
2023/06/22 07:21:35;;;;;;;7.57;7.13;;;;;;;35.85;33.58;99770.50;5088100;28;20539;-70
2023/06/22 07:24:01;;;;;;;53.60;9.45;;;;;;;35.64;32.91;99764.41;5076072;28;20665;-69
2023/06/22 07:26:28;;;;;;;7.15;6.75;;;;;;;35.04;33.87;99764.66;5087044;28;20195;-70
2023/06/22 07:28:55;;;;;;;7.60;6.82;;;;;;;34.74;34.43;99769.66;5081325;28;20187;-69
2023/06/22 07:31:25;;;;;;;9.45;6.97;;;;;;;34.63;33.95;99763.03;5088214;28;20292;-70
2023/06/22 07:33:52;;;;;;;6.90;6.43;;;;;;;34.47;34.25;99775.13;5088319;28;20187;-70
2023/06/22 07:36:19;;;;;;;23.13;7.95;;;;;;;34.16;34.89;99752.81;5081918;28;20621;-70
2023/06/22 07:38:46;;;;;;;14.63;7.22;;;;;;;34.51;34.36;99771.34;5087126;28;20256;-69
2023/06/22 07:41:13;;;;;;;8.00;6.70;;;;;;;34.66;34.10;99775.34;5090921;28;20195;-69
2023/06/22 07:43:40;;;;;;;7.45;6.85;;;;;;;34.75;33.65;99773.22;5090944;28;20200;-69
2023/06/22 07:46:07;;;;;;;8.35;6.28;;;;;;;35.10;33.74;99771.53;5083125;28;20253;-69
2023/06/22 07:48:37;;;;;;;9.30;6.95;;;;;;;35.60;33.54;99774.56;5092687;28;20535;-70
2023/06/22 07:51:04;;;;;;;9.48;7.00;;;;;;;36.00;33.31;99766.94;5094515;28;20211;-70
2023/06/22 07:53:31;;;;;;;11.70;6.20;;;;;;;36.49;31.71;99777.28;5094860;28;20195;-69
2023/06/22 07:55:58;;;;;;;6.43;6.03;;;;;;;36.56;30.66;99771.09;5084132;28;20192;-70
2023/06/22 07:58:24;;;;;;;6.72;6.13;;;;;;;36.09;30.61;99773.09;5094736;28;20195;-69
2023/06/22 08:00:51;;;;;;;34.13;7.65;;;;;;;35.98;31.21;99763.72;5091213;28;20225;-72
2023/06/22 08:03:18;;;;;;;5.85;5.30;;;;;;;36.36;30.86;99769.44;5094325;28;20249;-69
2023/06/22 08:05:46;;;;;;;5.85;5.50;;;;;;;36.54;29.39;99765.91;5093988;28;20198;-69
2023/06/22 08:08:14;;;;;;;5.88;5.40;;;;;;;36.23;29.89;99760.44;5094181;28;20195;-67
2023/06/22 08:10:42;;;;;;;6.40;5.80;;;;;;;35.98;30.57;99756.25;5094813;28;20226;-67
2023/06/22 08:13:08;;;;;;;5.50;5.15;;;;;;;36.34;29.88;99755.16;5088838;28;20195;-69
2023/06/22 08:15:35;;;;;;;6.00;5.60;;;;;;;36.89;29.35;99754.84;5084455;28;20228;-67
2023/06/22 08:18:02;;;;;;;6.07;5.60;;;;;;;36.46;28.94;99752.28;5084110;28;20191;-69
2023/06/22 08:20:29;;;;;;;6.88;6.30;;;;;;;36.68;29.23;99748.84;5091162;28;20271;-68
2023/06/22 08:23:00;;;;;;;6.82;6.05;;;;;;;36.85;29.49;99742.88;5086124;28;20223;-68
2023/06/22 08:25:26;;;;;;;8.10;5.95;;;;;;;36.81;28.47;99744.75;5091147;28;20274;-69
2023/06/22 08:27:53;;;;;;;5.78;5.47;;;;;;;37.11;28.91;99745.81;5090574;28;20675;-68
2023/06/22 08:30:20;;;;;;;9.27;6.60;;;;;;;37.45;28.66;99744.91;5096195;28;20805;-68
2023/06/22 08:32:46;;;;;;;16.77;6.80;;;;;;;37.64;27.58;99733.78;5083220;28;20179;-67
2023/06/22 08:35:13;;;;;;;7.97;6.07;;;;;;;37.72;26.61;99731.97;5091232;28;20191;-67
2023/06/22 08:37:40;;;;;;;5.93;5.55;;;;;;;37.15;28.28;99730.09;5092558;28;20647;-68
2023/06/22 08:40:10;;;;;;;10.55;7.10;;;;;;;37.39;28.64;99729.72;5090839;28;20342;-69
2023/06/22 08:42:37;;;;;;;12.02;6.50;;;;;;;37.36;28.79;99729.69;5090114;28;20237;-68
2023/06/22 08:45:05;;;;;;;10.98;5.85;;;;;;;37.57;26.75;99718.97;5092385;28;20783;-69
2023/06/22 08:47:31;;;;;;;6.13;5.57;;;;;;;37.37;26.64;99721.00;5093438;28;20260;-69
2023/06/22 08:49:58;;;;;;;11.00;5.60;;;;;;;37.47;27.05;99725.91;5093555;28;20203;-68
2023/06/22 08:52:25;;;;;;;6.20;5.78;;;;;;;37.30;26.88;99725.63;5093196;28;20635;-67
2023/06/22 08:54:52;;;;;;;5.75;5.25;;;;;;;37.29;26.59;99727.56;5093597;28;20304;-68
2023/06/22 08:57:21;;;;;;;6.45;5.30;;;;;;;37.07;26.83;99728.31;5093148;28;20199;-69
2023/06/22 08:59:48;;;;;;;5.70;5.45;;;;;;;36.72;26.98;99733.09;5091935;28;20558;-70
2023/06/22 09:02:15;;;;;;;5.78;5.32;;;;;;;36.96;29.17;99722.53;5093664;28;20747;-71
2023/06/22 09:04:42;;;;;;;6.72;6.20;;;;;;;37.28;29.48;99719.63;5093704;28;20199;-72
2023/06/22 09:07:08;;;;;;;11.70;5.88;;;;;;;37.42;26.91;99723.47;5113576;28;20666;-71
2023/06/22 09:09:35;;;;;;;8.35;5.95;;;;;;;37.65;26.85;99724.31;5086572;28;20219;-71
2023/06/22 09:12:02;;;;;;;7.43;5.35;;;;;;;37.60;26.01;99730.16;5076246;28;20254;-71
2023/06/22 09:14:30;;;;;;;6.60;5.45;;;;;;;37.41;27.36;99724.63;5092113;28;20207;-70
2023/06/22 09:16:57;;;;;;;6.70;6.05;;;;;;;37.49;28.47;99717.25;5091997;28;20199;-71
2023/06/22 09:19:23;;;;;;;6.03;5.68;;;;;;;37.73;27.10;99723.28;5091844;28;20195;-72
2023/06/22 09:21:50;;;;;;;8.02;5.75;;;;;;;37.40;27.11;99725.81;5091716;28;20205;-71
2023/06/22 09:24:17;;;;;;;5.60;5.10;;;;;;;37.66;25.68;99723.13;5090373;28;20199;-71
2023/06/22 09:26:44;;;;;;;5.43;5.13;;;;;;;37.49;26.52;99693.09;5088364;28;20191;-72
2023/06/22 09:29:10;;;;;;;6.35;5.45;;;;;;;37.73;27.09;99712.19;5090380;28;20603;-72
2023/06/22 09:31:39;;;;;;;7.13;5.40;;;;;;;37.33;26.32;99709.03;5090166;28;20243;-72
2023/06/22 09:34:05;;;;;;;5.72;5.40;;;;;;;37.53;26.69;99713.38;5091915;28;20211;-73
2023/06/22 09:36:32;;;;;;;5.35;5.07;;;;;;;37.26;25.09;99710.88;5090714;28;20566;-72
2023/06/22 09:38:59;;;;;;;10.77;6.07;;;;;;;37.44;26.00;99704.50;5087851;28;20187;-71
2023/06/22 09:41:26;;;;;;;5.60;4.97;;;;;;;37.09;26.69;99709.34;5083906;28;20259;-72
2023/06/22 09:43:52;;;;;;;6.10;5.70;;;;;;;37.05;26.51;99697.38;5090715;28;20593;-72
2023/06/22 09:46:21;;;;;;;5.03;4.72;;;;;;;37.04;25.02;99717.94;5090280;28;20270;-72
2023/06/22 09:48:51;;;;;;;9.13;5.38;;;;;;;37.27;24.00;99704.94;5072326;28;20196;-73
2023/06/22 09:51:18;;;;;;;5.80;5.50;;;;;;;37.49;26.51;99703.38;5070893;28;20223;-71
2023/06/22 09:53:45;;;;;;;6.22;5.72;;;;;;;37.74;28.62;99697.13;5089634;28;20699;-71
2023/06/22 09:56:14;;;;;;;6.00;5.70;;;;;;;37.63;25.70;99707.22;5090721;28;20252;-70
2023/06/22 09:58:41;;;;;;;6.50;6.10;;;;;;;37.55;25.84;99705.47;5089915;28;20192;-70
2023/06/22 10:01:08;;;;;;;6.07;5.78;;;;;;;37.68;25.15;99709.69;5090418;28;20191;-71
2023/06/22 10:03:35;;;;;;;5.85;5.63;;;;;;;37.71;24.45;99702.63;5090579;28;20191;-71
2023/06/22 10:06:03;;;;;;;6.15;5.72;;;;;;;37.69;25.01;99700.22;5090440;28;20203;-70
2023/06/22 10:08:30;;;;;;;6.30;6.00;;;;;;;37.58;26.67;99699.19;5091278;28;20241;-71
2023/06/22 10:10:57;;;;;;;6.43;5.90;;;;;;;37.21;25.57;99695.34;5089520;28;20226;-69
2023/06/22 10:13:23;;;;;;;6.07;5.78;;;;;;;36.58;26.00;99696.78;5090494;28;20196;-69
2023/06/22 10:15:51;;;;;;;6.88;6.30;;;;;;;36.79;25.14;99691.72;5085116;28;20683;-69
2023/06/22 10:18:18;;;;;;;6.05;5.53;;;;;;;36.97;25.57;99690.91;5084456;28;20195;-70
2023/06/22 10:20:46;;;;;;;6.07;5.63;;;;;;;37.22;25.11;99686.66;5090394;28;20203;-69
2023/06/22 10:23:14;;;;;;;5.88;5.47;;;;;;;37.28;26.29;99665.00;5090149;28;20196;-71
2023/06/22 10:25:41;;;;;;;6.57;6.05;;;;;;;37.33;25.90;99675.78;5090023;28;20211;-71
2023/06/22 10:28:07;;;;;;;6.15;5.50;;;;;;;37.29;25.59;99672.13;5092461;28;20195;-70
2023/06/22 10:30:34;;;;;;;6.15;5.85;;;;;;;36.65;27.19;99677.53;5091382;28;20690;-69
2023/06/22 10:33:01;;;;;;;6.43;6.03;;;;;;;36.86;27.37;99669.69;5092062;28;20187;-70
2023/06/22 10:35:27;;;;;;;6.78;6.15;;;;;;;36.92;25.46;99665.47;5091422;28;20248;-69
2023/06/22 10:37:56;;;;;;;6.53;5.97;;;;;;;37.08;26.33;99664.19;5092167;28;20195;-70
2023/06/22 10:40:24;;;;;;;6.47;6.07;;;;;;;37.11;27.70;99657.91;5090211;28;20904;-68
2023/06/22 10:42:51;;;;;;;5.82;5.55;;;;;;;37.02;26.32;99664.84;5090211;28;20252;-68
2023/06/22 10:45:17;;;;;;;15.18;6.35;;;;;;;37.04;25.86;99657.00;5091435;28;20238;-67
2023/06/22 10:47:44;;;;;;;11.00;6.10;;;;;;;36.91;25.65;99661.09;5085850;28;20244;-67
2023/06/22 10:50:11;;;;;;;6.38;5.97;;;;;;;36.90;25.05;99649.22;5090095;28;20286;-68
2023/06/22 10:52:38;;;;;;;7.03;5.85;;;;;;;37.03;25.04;99649.84;5091906;28;20223;-67
2023/06/22 10:55:05;;;;;;;10.50;5.90;;;;;;;36.85;25.86;99640.38;5091097;28;20667;-69
2023/06/22 10:57:34;;;;;;;5.53;5.32;;;;;;;36.39;26.14;99644.16;5110323;28;20622;-70
2023/06/22 11:00:00;;;;;;;6.88;5.72;;;;;;;36.61;25.61;99643.44;5112380;28;20263;-71
2023/06/22 11:02:28;;;;;;;6.30;6.00;;;;;;;36.69;25.27;99640.47;5112180;28;20195;-70
2023/06/22 11:04:55;;;;;;;6.07;5.78;;;;;;;36.84;25.74;99636.84;5108681;28;20192;-70
2023/06/22 11:07:21;;;;;;;6.38;6.05;;;;;;;36.67;26.40;99631.69;5089786;28;20195;-70
2023/06/22 11:09:48;;;;;;;6.43;5.85;;;;;;;36.34;25.95;99633.38;5090542;28;20199;-69
2023/06/22 11:12:15;;;;;;;6.95;6.35;;;;;;;36.43;25.96;99620.13;5091118;28;20211;-71
2023/06/22 11:14:43;;;;;;;6.45;5.53;;;;;;;36.62;26.46;99631.22;5091068;28;20196;-68
2023/06/22 11:17:10;;;;;;;6.50;6.20;;;;;;;36.69;26.22;99636.91;5090487;28;20241;-68
2023/06/22 11:19:36;;;;;;;6.50;5.93;;;;;;;36.08;25.30;99638.69;5091232;28;20222;-69
2023/06/22 11:22:03;;;;;;;6.20;5.63;;;;;;;36.23;26.86;99637.88;5090879;28;20575;-70
2023/06/22 11:24:30;;;;;;;6.35;6.05;;;;;;;36.30;26.00;99638.03;5091814;28;20253;-68
2023/06/22 11:26:56;;;;;;;6.10;5.80;;;;;;;36.09;26.96;99632.78;5090665;28;20221;-70
2023/06/22 11:29:23;;;;;;;6.70;6.10;;;;;;;36.02;26.44;99629.06;5090733;28;20663;-69